Time;durP1;ratioP1;P1;durP2;ratioP2;P2;SDS_P1;SDS_P2;PMS_P1;PMS_P2;Temp;Humidity;BMP_temperature;BMP_pressure;BME280_temperature;BME280_humidity;BME280_pressure;Samples;Min_cycle;Max_cycle;Signal;HPM_P1;HPM_P2
2021/04/02 00:01:45;;;;;;;62.22;37.45;;;13.10;94.10;;;;;;5139998;27;20485;-77
2021/04/02 00:04:11;;;;;;;62.28;37.35;;;13.10;94.30;;;;;;5141089;27;20023;-70
2021/04/02 00:06:36;;;;;;;63.17;37.67;;;13.20;94.30;;;;;;5140736;27;20414;-72
2021/04/02 00:09:03;;;;;;;60.10;38.40;;;13.30;94.00;;;;;;5140349;27;20046;-72
2021/04/02 00:11:29;;;;;;;64.32;40.47;;;13.40;93.50;;;;;;5138119;27;20106;-70
2021/04/02 00:13:55;;;;;;;68.60;40.42;;;13.30;93.50;;;;;;5138114;27;20019;-74
2021/04/02 00:16:21;;;;;;;71.78;41.00;;;13.40;93.30;;;;;;5140210;27;20030;-77
2021/04/02 00:18:47;;;;;;;67.45;42.00;;;13.40;93.20;;;;;;5139314;27;20075;-71
2021/04/02 00:21:15;;;;;;;69.07;40.95;;;13.40;93.60;;;;;;5139656;27;20015;-75
2021/04/02 00:23:42;;;;;;;65.32;37.20;;;13.50;93.00;;;;;;5140946;27;20022;-77
2021/04/02 00:26:16;;;;;;;57.03;33.63;;;13.80;92.50;;;;;;5140474;27;20563;-71
2021/04/02 00:28:42;;;;;;;55.65;34.88;;;13.90;92.00;;;;;;5139649;27;20468;-77
2021/04/02 00:31:08;;;;;;;55.72;33.22;;;14.00;91.90;;;;;;5140202;27;20044;-74
2021/04/02 00:33:35;;;;;;;52.55;33.65;;;14.00;92.10;;;;;;5139727;27;20023;-72
2021/04/02 00:36:03;;;;;;;55.70;34.08;;;13.90;92.30;;;;;;5140882;27;20023;-72
2021/04/02 00:38:29;;;;;;;50.05;33.83;;;13.90;92.70;;;;;;5138757;27;20102;-77
2021/04/02 00:40:59;;;;;;;55.05;34.17;;;13.70;93.20;;;;;;5139756;27;20477;-77
2021/04/02 00:43:28;;;;;;;53.58;35.85;;;13.20;94.00;;;;;;5139315;27;20023;-71
2021/04/02 00:45:54;;;;;;;61.85;35.85;;;13.30;94.10;;;;;;5138823;27;20023;-72
2021/04/02 00:48:20;;;;;;;59.58;36.67;;;13.30;94.30;;;;;;5140692;27;20027;-72
2021/04/02 00:50:53;;;;;;;57.45;37.08;;;13.00;94.40;;;;;;5139286;27;20435;-77
2021/04/02 00:53:21;;;;;;;63.92;39.20;;;13.00;94.60;;;;;;5139909;27;20102;-72
2021/04/02 00:55:48;;;;;;;62.83;38.70;;;13.00;94.90;;;;;;5139388;27;20015;-70
2021/04/02 00:58:17;;;;;;;57.80;38.13;;;12.90;95.10;;;;;;5140709;27;20086;-77
2021/04/02 01:00:44;;;;;;;60.58;38.13;;;12.80;95.50;;;;;;5139588;27;20160;-77
2021/04/02 01:03:10;;;;;;;58.55;37.33;;;12.70;95.60;;;;;;5140313;27;20019;-70
2021/04/02 01:05:47;;;;;;;58.25;38.28;;;12.80;95.50;;;;;;5140074;27;20022;-70
2021/04/02 01:08:21;;;;;;;56.92;37.38;;;12.90;95.40;;;;;;5139664;27;20027;-75
2021/04/02 01:10:50;;;;;;;61.22;36.28;;;12.90;95.30;;;;;;5139739;27;20107;-71
2021/04/02 01:13:37;;;;;;;56.72;36.42;;;12.90;95.30;;;;;;5140147;27;20023;-77
2021/04/02 01:16:16;;;;;;;56.78;36.85;;;12.90;95.30;;;;;;5140113;27;20064;-71
2021/04/02 01:19:00;;;;;;;55.63;36.67;;;13.00;95.10;;;;;;5138634;27;20050;-70
2021/04/02 01:21:28;;;;;;;61.42;36.70;;;13.00;95.10;;;;;;5139853;27;20064;-75
2021/04/02 01:24:00;;;;;;;54.85;37.13;;;13.10;94.90;;;;;;5137748;27;20109;-75
2021/04/02 01:26:32;;;;;;;58.67;37.55;;;13.10;94.90;;;;;;5137085;27;20027;-76
2021/04/02 01:29:01;;;;;;;59.97;37.90;;;13.10;95.10;;;;;;5139830;27;20362;-76
2021/04/02 01:31:27;;;;;;;62.88;38.90;;;13.10;94.70;;;;;;5139230;27;20054;-75
2021/04/02 01:33:58;;;;;;;56.83;37.70;;;13.10;95.10;;;;;;5139049;27;20015;-70
2021/04/02 01:36:26;;;;;;;58.05;37.60;;;13.10;95.00;;;;;;5139032;27;20015;-72
2021/04/02 01:38:53;;;;;;;60.72;38.42;;;13.20;94.80;;;;;;5139414;27;20029;-77
2021/04/02 01:41:22;;;;;;;53.65;35.83;;;13.20;94.60;;;;;;5138874;27;20143;-72
2021/04/02 01:43:55;;;;;;;56.25;36.17;;;13.20;94.50;;;;;;5137461;27;20113;-74
2021/04/02 01:46:22;;;;;;;54.85;35.80;;;12.90;94.90;;;;;;5139041;27;20016;-75
2021/04/02 01:48:54;;;;;;;55.83;35.58;;;12.80;95.00;;;;;;5139272;27;20027;-77
2021/04/02 01:51:22;;;;;;;52.08;34.53;;;12.80;95.20;;;;;;5138230;27;20163;-74
2021/04/02 01:53:52;;;;;;;60.97;35.17;;;12.80;95.30;;;;;;5139434;27;20015;-75
2021/04/02 01:56:19;;;;;;;55.78;36.42;;;12.80;95.50;;;;;;5139076;27;20027;-70
2021/04/02 01:58:47;;;;;;;53.60;36.00;;;12.70;95.50;;;;;;5138887;27;20019;-70
2021/04/02 02:01:17;;;;;;;58.97;37.20;;;12.70;95.60;;;;;;5139864;27;20469;-74
2021/04/02 02:03:48;;;;;;;57.47;36.22;;;12.60;96.00;;;;;;5138982;27;20019;-77
2021/04/02 02:06:15;;;;;;;55.95;36.90;;;12.60;95.80;;;;;;5139401;27;20068;-76
2021/04/02 02:08:41;;;;;;;58.38;38.03;;;12.50;96.00;;;;;;5139873;27;20092;-70
2021/04/02 02:11:12;;;;;;;62.50;41.65;;;12.50;96.20;;;;;;5139587;27;20011;-75
2021/04/02 02:13:41;;;;;;;60.88;40.35;;;12.60;96.10;;;;;;5137730;27;20031;-76
2021/04/02 02:16:09;;;;;;;65.53;42.85;;;12.60;95.60;;;;;;5139083;27;20042;-76
2021/04/02 02:18:37;;;;;;;55.92;38.13;;;12.30;96.60;;;;;;5138772;27;20043;-70
2021/04/02 02:21:07;;;;;;;45.55;31.13;;;12.40;96.30;;;;;;5138265;27;20038;-70
2021/04/02 02:23:34;;;;;;;38.33;25.45;;;12.60;95.80;;;;;;5137797;27;20110;-77
2021/04/02 02:26:00;;;;;;;31.73;23.30;;;12.80;95.80;;;;;;5139302;27;20027;-71
2021/04/02 02:28:27;;;;;;;31.88;23.85;;;13.00;95.40;;;;;;5138956;27;20019;-72
2021/04/02 02:30:52;;;;;;;32.50;23.70;;;13.20;94.90;;;;;;5137475;27;20037;-70
2021/04/02 02:33:18;;;;;;;35.72;24.83;;;13.30;94.80;;;;;;5138047;27;20106;-76
2021/04/02 02:35:44;;;;;;;36.70;26.17;;;13.50;94.50;;;;;;5138399;27;20414;-72
2021/04/02 02:38:11;;;;;;;37.25;27.55;;;13.50;94.50;;;;;;5138713;27;20369;-73
2021/04/02 02:40:38;;;;;;;36.58;27.00;;;13.50;94.70;;;;;;5137007;27;20417;-77
2021/04/02 02:43:06;;;;;;;32.67;25.67;;;13.40;94.70;;;;;;5138871;27;20023;-73
2021/04/02 02:45:33;;;;;;;35.33;26.50;;;13.40;94.70;;;;;;5138728;27;20540;-77
2021/04/02 02:48:00;;;;;;;34.13;26.25;;;13.50;94.80;;;;;;5139183;27;20400;-73
2021/04/02 02:50:31;;;;;;;35.38;24.92;;;13.40;94.50;;;;;;5137701;27;20058;-73
2021/04/02 02:52:59;;;;;;;31.48;25.17;;;13.30;94.60;;;;;;5138928;27;20023;-71
2021/04/02 02:55:27;;;;;;;33.08;24.88;;;13.20;94.80;;;;;;5138248;27;20053;-73
2021/04/02 02:57:55;;;;;;;34.17;25.42;;;13.20;94.80;;;;;;5139098;27;20039;-70
2021/04/02 03:00:25;;;;;;;33.10;24.98;;;13.30;95.00;;;;;;5138554;27;20048;-75
2021/04/02 03:02:54;;;;;;;36.38;26.10;;;13.30;94.70;;;;;;5138118;27;20023;-75
2021/04/02 03:05:27;;;;;;;38.90;27.90;;;13.30;94.80;;;;;;5138049;27;20030;-72
2021/04/02 03:08:15;;;;;;;40.63;30.02;;;13.20;94.80;;;;;;5137847;27;20023;-72
2021/04/02 03:10:42;;;;;;;38.63;27.30;;;13.10;95.30;;;;;;5098971;28;20050;-74
2021/04/02 03:13:09;;;;;;;37.35;26.30;;;12.90;95.60;;;;;;5115982;28;20039;-71
2021/04/02 03:15:35;;;;;;;35.92;27.00;;;12.70;96.00;;;;;;5115602;28;20057;-73
2021/04/02 03:18:07;;;;;;;39.60;28.02;;;12.50;96.40;;;;;;5115673;28;20043;-71
2021/04/02 03:20:36;;;;;;;42.10;26.67;;;12.60;96.50;;;;;;5116604;28;20134;-71
2021/04/02 03:23:04;;;;;;;37.20;24.88;;;12.60;96.60;;;;;;5115960;28;20024;-74
2021/04/02 03:25:31;;;;;;;35.03;25.45;;;12.70;96.40;;;;;;5115324;28;20032;-73
2021/04/02 03:27:58;;;;;;;37.58;27.13;;;12.70;96.50;;;;;;5082118;28;20393;-71
2021/04/02 03:30:26;;;;;;;40.75;27.15;;;12.60;96.60;;;;;;5097977;28;20028;-72
2021/04/02 03:33:06;;;;;;;41.88;27.73;;;12.60;96.70;;;;;;5116346;28;20024;-75
2021/04/02 03:35:35;;;;;;;39.95;27.63;;;12.50;96.90;;;;;;5114712;28;20185;-77
2021/04/02 03:38:02;;;;;;;34.60;27.05;;;12.40;97.10;;;;;;5098193;28;20024;-72
2021/04/02 03:40:29;;;;;;;36.17;26.75;;;12.40;96.90;;;;;;5099019;28;20035;-70
2021/04/02 03:43:00;;;;;;;42.97;26.90;;;12.40;97.00;;;;;;5138102;27;20022;-73
2021/04/02 03:45:28;;;;;;;36.65;25.15;;;12.30;97.20;;;;;;5138240;27;20124;-70
2021/04/02 03:47:55;;;;;;;36.70;24.60;;;12.40;97.20;;;;;;5137547;27;20047;-73
2021/04/02 03:50:27;;;;;;;37.78;25.25;;;12.40;97.10;;;;;;5137360;28;20027;-74
2021/04/02 03:53:10;;;;;;;39.10;25.38;;;12.50;97.00;;;;;;5138001;27;20484;-70
2021/04/02 03:55:40;;;;;;;46.50;27.38;;;12.60;96.90;;;;;;5136050;28;20023;-74
2021/04/02 03:58:08;;;;;;;34.80;22.35;;;12.60;97.20;;;;;;5138245;27;20026;-76
2021/04/02 04:00:47;;;;;;;37.45;24.65;;;12.80;96.70;;;;;;5136987;27;20015;-74
2021/04/02 04:03:16;;;;;;;35.75;24.35;;;12.90;97.60;;;;;;5137441;27;20034;-70
2021/04/02 04:05:43;;;;;;;33.80;22.23;;;12.90;97.40;;;;;;5138276;27;20031;-70
2021/04/02 04:08:15;;;;;;;31.02;21.08;;;12.90;97.80;;;;;;5136372;28;20019;-75
2021/04/02 04:10:42;;;;;;;31.00;19.60;;;12.80;98.20;;;;;;5136902;27;20115;-70
2021/04/02 04:13:12;;;;;;;24.80;18.77;;;12.80;98.50;;;;;;5136793;28;20472;-73
2021/04/02 04:15:41;;;;;;;22.70;17.23;;;12.50;98.30;;;;;;5138526;27;20019;-75
2021/04/02 04:18:08;;;;;;;23.85;17.13;;;12.60;99.30;;;;;;5140015;27;20019;-70
2021/04/02 04:20:36;;;;;;;27.38;18.80;;;12.60;99.20;;;;;;5141494;27;20023;-75
2021/04/02 04:23:02;;;;;;;22.90;17.75;;;12.60;99.40;;;;;;5141303;27;20011;-69
2021/04/02 04:25:29;;;;;;;23.50;15.05;;;12.50;99.90;;;;;;5141496;27;20030;-70
2021/04/02 04:27:58;;;;;;;22.02;15.48;;;12.70;98.90;;;;;;5140781;27;20120;-71
2021/04/02 04:30:25;;;;;;;22.75;15.90;;;12.70;99.30;;;;;;5142031;27;20472;-70
2021/04/02 04:32:54;;;;;;;22.60;15.80;;;12.60;99.70;;;;;;5141846;27;20027;-72
2021/04/02 04:35:21;;;;;;;19.70;14.13;;;12.70;99.40;;;;;;5139086;27;20392;-70
2021/04/02 04:37:47;;;;;;;21.02;14.23;;;12.80;99.00;;;;;;5140882;27;20015;-75
2021/04/02 04:40:19;;;;;;;20.20;13.27;;;12.90;98.70;;;;;;5141294;27;20072;-70
2021/04/02 04:42:46;;;;;;;18.67;13.43;;;13.10;97.90;;;;;;5140845;27;20334;-73
2021/04/02 04:45:24;;;;;;;23.73;15.63;;;13.20;97.50;;;;;;5140944;27;20026;-72
2021/04/02 04:47:51;;;;;;;33.83;20.67;;;13.30;97.80;;;;;;5141157;27;20498;-76
2021/04/02 04:50:17;;;;;;;41.80;25.95;;;13.30;99.00;;;;;;5139500;27;20038;-76
2021/04/02 04:52:48;;;;;;;48.70;28.67;;;13.30;99.10;;;;;;5141264;27;20026;-70
2021/04/02 04:55:16;;;;;;;47.63;29.00;;;13.20;98.90;;;;;;5139100;27;20034;-72
2021/04/02 04:57:48;;;;;;;44.88;30.38;;;13.10;99.20;;;;;;5140717;27;20556;-76
2021/04/02 05:00:15;;;;;;;40.65;27.73;;;13.10;99.00;;;;;;5141194;27;20090;-73
2021/04/02 05:02:44;;;;;;;40.55;27.55;;;13.10;99.30;;;;;;5139414;27;20023;-70
2021/04/02 05:05:17;;;;;;;37.58;24.80;;;13.10;99.10;;;;;;5140447;27;20015;-70
2021/04/02 05:07:44;;;;;;;45.53;27.83;;;13.20;99.60;;;;;;5140320;27;20034;-73
2021/04/02 05:10:12;;;;;;;33.05;23.13;;;13.00;99.40;;;;;;5140597;27;20476;-76
2021/04/02 05:12:39;;;;;;;29.75;21.67;;;12.90;99.50;;;;;;5140836;27;20127;-71
2021/04/02 05:15:06;;;;;;;26.05;20.02;;;13.00;99.60;;;;;;5139730;27;20072;-72
2021/04/02 05:17:33;;;;;;;32.17;22.10;;;13.00;99.70;;;;;;5138843;27;20030;-75
2021/04/02 05:20:00;;;;;;;44.92;29.55;;;13.00;99.60;;;;;;5138134;27;20054;-75
2021/04/02 05:22:25;;;;;;;36.33;24.52;;;12.90;99.50;;;;;;5140207;27;20123;-70
2021/04/02 05:24:52;;;;;;;28.55;20.80;;;13.10;99.90;;;;;;5140969;27;20019;-75
2021/04/02 05:27:19;;;;;;;28.75;19.08;;;13.20;99.20;;;;;;5138766;27;20030;-72
2021/04/02 05:29:45;;;;;;;26.77;16.45;;;13.30;99.00;;;;;;5140006;27;20057;-73
2021/04/02 05:32:11;;;;;;;24.98;19.23;;;13.30;99.20;;;;;;5140292;27;20023;-71
2021/04/02 05:34:37;;;;;;;24.38;16.48;;;13.10;99.30;;;;;;5138277;27;20015;-75
2021/04/02 05:37:03;;;;;;;23.48;17.00;;;13.10;99.90;;;;;;5139175;27;20023;-72
2021/04/02 05:39:29;;;;;;;22.77;14.77;;;13.00;99.90;;;;;;5139431;27;20028;-70
2021/04/02 05:42:06;;;;;;;23.73;15.30;;;13.10;99.90;;;;;;5140223;27;20019;-74
2021/04/02 05:44:34;;;;;;;20.58;14.98;;;13.20;99.90;;;;;;5140485;27;20668;-70
2021/04/02 05:47:08;;;;;;;21.20;16.15;;;13.20;99.90;;;;;;5138710;27;20023;-72
2021/04/02 05:49:35;;;;;;;25.40;16.15;;;13.10;99.90;;;;;;5138970;27;20054;-75
2021/04/02 05:52:02;;;;;;;24.15;17.13;;;13.10;99.90;;;;;;5138954;27;20358;-71
2021/04/02 05:54:29;;;;;;;23.75;17.10;;;13.10;99.90;;;;;;5139809;27;20039;-75
2021/04/02 05:56:56;;;;;;;24.42;18.42;;;13.10;99.90;;;;;;5139984;27;20019;-73
2021/04/02 05:59:22;;;;;;;25.33;18.30;;;13.00;99.90;;;;;;5138588;27;20055;-72
2021/04/02 06:01:49;;;;;;;31.00;21.42;;;13.00;99.90;;;;;;5138527;27;20033;-75
2021/04/02 06:04:15;;;;;;;30.08;19.23;;;13.10;99.90;;;;;;5139848;27;20051;-74
2021/04/02 06:06:41;;;;;;;27.60;19.70;;;13.00;99.90;;;;;;5139735;27;20026;-70
2021/04/02 06:09:07;;;;;;;28.52;21.33;;;13.10;99.90;;;;;;5138968;27;20023;-72
2021/04/02 06:11:35;;;;;;;24.65;17.45;;;13.20;99.90;;;;;;5139019;27;20023;-76
2021/04/02 06:14:01;;;;;;;24.98;18.23;;;13.20;99.90;;;;;;5137787;27;20019;-69
2021/04/02 06:16:27;;;;;;;26.63;18.85;;;13.20;99.90;;;;;;5137408;27;20030;-75
2021/04/02 06:18:57;;;;;;;25.95;18.25;;;13.20;99.90;;;;;;5137987;27;20073;-72
2021/04/02 06:21:26;;;;;;;24.75;18.35;;;13.20;99.90;;;;;;5138894;27;20031;-75
2021/04/02 06:23:52;;;;;;;26.05;19.73;;;13.30;99.90;;;;;;5139585;27;20468;-71
2021/04/02 06:26:18;;;;;;;31.85;22.50;;;13.40;99.90;;;;;;5138710;27;20106;-69
2021/04/02 06:28:44;;;;;;;35.92;23.30;;;13.40;99.90;;;;;;5139571;27;20023;-69
2021/04/02 06:31:15;;;;;;;35.15;23.52;;;13.60;99.90;;;;;;5137612;27;20015;-76
2021/04/02 06:33:43;;;;;;;38.20;22.48;;;13.70;99.90;;;;;;5136569;27;20111;-72
2021/04/02 06:36:23;;;;;;;47.80;28.60;;;13.90;99.50;;;;;;5137888;27;20019;-72
2021/04/02 06:38:58;;;;;;;54.13;39.75;;;13.90;99.90;;;;;;5137804;27;20075;-69
2021/04/02 06:41:25;;;;;;;29.38;20.58;;;14.10;99.90;;;;;;5135516;27;20019;-69
2021/04/02 06:43:56;;;;;;;23.42;19.20;;;14.20;99.90;;;;;;5135427;27;20027;-68
2021/04/02 06:46:26;;;;;;;27.30;20.85;;;14.20;99.80;;;;;;5136597;27;20030;-74
2021/04/02 06:48:56;;;;;;;37.60;26.60;;;14.30;99.90;;;;;;5135816;27;20072;-72
2021/04/02 06:51:23;;;;;;;31.50;22.30;;;14.40;99.90;;;;;;5136296;27;20023;-71
2021/04/02 06:53:53;;;;;;;48.38;32.13;;;14.30;99.90;;;;;;5127741;27;20023;-68
2021/04/02 06:56:20;;;;;;;31.50;20.52;;;14.30;99.90;;;;;;5125178;27;20076;-67
2021/04/02 06:58:47;;;;;;;26.42;19.42;;;14.30;99.60;;;;;;5135223;27;20007;-71
2021/04/02 07:01:15;;;;;;;31.73;22.30;;;14.50;99.50;;;;;;5134770;27;20019;-67
2021/04/02 07:03:43;;;;;;;30.83;21.48;;;14.70;99.10;;;;;;5134751;27;20023;-70
2021/04/02 07:06:10;;;;;;;30.65;22.25;;;14.90;98.30;;;;;;5135852;27;20019;-71
2021/04/02 07:08:39;;;;;;;28.83;20.90;;;15.10;98.70;;;;;;5135816;27;20027;-69
2021/04/02 07:11:05;;;;;;;27.52;20.05;;;15.20;98.40;;;;;;5137283;27;20033;-78
2021/04/02 07:13:36;;;;;;;28.60;20.40;;;15.30;97.80;;;;;;5137131;28;20376;-72
2021/04/02 07:16:03;;;;;;;36.42;23.35;;;15.30;97.20;;;;;;5136978;27;20023;-74
2021/04/02 07:18:30;;;;;;;31.48;19.63;;;15.30;98.30;;;;;;5137993;27;20050;-71
2021/04/02 07:20:56;;;;;;;25.85;17.05;;;15.40;98.50;;;;;;5138801;27;20023;-76
2021/04/02 07:23:23;;;;;;;28.05;17.55;;;15.30;98.30;;;;;;5137532;27;20019;-72
2021/04/02 07:25:49;;;;;;;20.35;14.35;;;15.30;98.10;;;;;;5135129;28;20019;-70
2021/04/02 07:28:16;;;;;;;28.35;16.67;;;15.30;97.80;;;;;;5137222;28;20114;-75
2021/04/02 07:30:44;;;;;;;52.83;32.40;;;15.30;98.50;;;;;;5136838;27;20508;-70
2021/04/02 07:33:13;;;;;;;72.28;41.97;;;15.30;98.10;;;;;;5138424;27;20380;-71
2021/04/02 07:35:40;;;;;;;84.32;43.33;;;15.20;97.30;;;;;;5136869;27;20030;-78
2021/04/02 07:38:27;;;;;;;26.90;18.88;;;15.20;97.80;;;;;;5134337;27;20031;-69
2021/04/02 07:40:53;;;;;;;22.73;15.38;;;15.20;97.50;;;;;;5120509;28;20426;-70
2021/04/02 07:43:19;;;;;;;21.92;14.55;;;15.30;97.80;;;;;;5132241;27;20020;-70
2021/04/02 07:45:52;;;;;;;24.92;16.30;;;15.30;98.40;;;;;;5132997;27;20066;-70
2021/04/02 07:48:21;;;;;;;22.40;15.50;;;15.30;97.90;;;;;;5131154;28;20023;-69
2021/04/02 07:50:53;;;;;;;28.58;20.27;;;15.40;97.80;;;;;;5123648;27;20101;-68
2021/04/02 07:53:28;;;;;;;51.38;35.78;;;15.40;97.80;;;;;;5136215;27;20015;-69
2021/04/02 07:56:09;;;;;;;30.02;20.83;;;15.40;98.20;;;;;;5135514;27;20063;-70
2021/04/02 07:58:40;;;;;;;29.90;18.40;;;15.40;97.60;;;;;;5140105;27;20035;-70
2021/04/02 08:01:06;;;;;;;28.13;18.15;;;15.40;97.40;;;;;;5141191;27;20046;-74
2021/04/02 08:03:33;;;;;;;20.33;14.18;;;15.40;97.40;;;;;;5142011;27;20019;-73
2021/04/02 08:06:02;;;;;;;27.10;18.55;;;15.30;96.80;;;;;;5140516;27;20027;-69
2021/04/02 08:08:46;;;;;;;25.98;17.77;;;15.40;98.20;;;;;;5141210;27;20019;-68
2021/04/02 08:11:31;;;;;;;21.98;16.23;;;15.40;97.30;;;;;;5140794;27;20027;-73
2021/04/02 08:14:00;;;;;;;30.88;18.63;;;15.40;97.30;;;;;;5136914;27;20030;-70
2021/04/02 08:16:32;;;;;;;23.92;15.15;;;15.40;98.00;;;;;;5135821;27;20023;-69
2021/04/02 08:19:28;;;;;;;24.95;17.05;;;15.40;97.70;;;;;;5136604;27;20035;-68
2021/04/02 08:21:59;;;;;;;25.45;16.35;;;15.40;97.50;;;;;;5135333;27;20011;-70
2021/04/02 08:24:34;;;;;;;22.65;15.98;;;15.50;97.00;;;;;;5137455;27;20011;-67
2021/04/02 08:27:00;;;;;;;29.35;21.27;;;15.60;97.30;;;;;;5138638;27;20021;-71
2021/04/02 08:29:28;;;;;;;30.75;18.88;;;15.70;97.20;;;;;;5141730;27;20024;-67
2021/04/02 08:32:06;;;;;;;23.33;17.70;;;15.90;97.40;;;;;;5140680;27;20015;-76
2021/04/02 08:34:34;;;;;;;135.60;95.65;;;16.10;96.90;;;;;;5139610;27;20494;-68
2021/04/02 08:37:04;;;;;;;30.83;23.33;;;16.30;96.60;;;;;;5137038;27;20122;-71
2021/04/02 08:39:30;;;;;;;31.73;21.90;;;16.30;95.70;;;;;;5136112;27;20066;-71
2021/04/02 08:42:06;;;;;;;40.53;28.42;;;16.50;95.60;;;;;;5137391;27;20015;-74
2021/04/02 08:44:42;;;;;;;20.70;14.90;;;16.50;94.90;;;;;;5141851;27;20038;-69
2021/04/02 08:47:10;;;;;;;22.17;15.35;;;16.60;94.80;;;;;;5140583;27;20030;-70
2021/04/02 08:49:44;;;;;;;27.42;18.67;;;16.70;95.30;;;;;;5140457;27;20364;-68
2021/04/02 08:52:17;;;;;;;22.85;16.33;;;16.70;95.30;;;;;;5139972;27;20031;-72
2021/04/02 08:54:44;;;;;;;22.63;15.65;;;16.70;95.00;;;;;;5139796;27;20031;-68
2021/04/02 08:57:14;;;;;;;66.13;37.60;;;16.70;95.50;;;;;;5139301;27;20027;-68
2021/04/02 08:59:45;;;;;;;20.80;15.98;;;16.70;95.80;;;;;;5139212;27;20019;-70
2021/04/02 09:02:16;;;;;;;23.70;15.30;;;16.70;96.50;;;;;;5136177;27;20064;-76
2021/04/02 09:04:43;;;;;;;21.33;16.52;;;16.70;95.90;;;;;;5139537;27;20027;-76
2021/04/02 09:07:10;;;;;;;25.73;16.88;;;16.70;95.30;;;;;;5134847;27;20033;-73
2021/04/02 09:09:40;;;;;;;26.92;16.88;;;16.90;95.50;;;;;;5137531;27;20027;-71
2021/04/02 09:12:13;;;;;;;20.98;15.98;;;17.00;95.20;;;;;;5138253;27;20035;-70
2021/04/02 09:14:43;;;;;;;20.90;15.23;;;17.10;95.60;;;;;;5138659;27;20019;-71
2021/04/02 09:17:19;;;;;;;22.58;17.17;;;17.40;94.50;;;;;;5139453;27;20023;-69
2021/04/02 09:19:46;;;;;;;36.40;21.25;;;17.80;94.70;;;;;;5138358;27;20115;-71
2021/04/02 09:22:13;;;;;;;19.42;12.05;;;18.30;94.00;;;;;;5139723;27;20038;-71
2021/04/02 09:24:41;;;;;;;17.02;12.05;;;18.50;92.20;;;;;;5139298;27;20050;-70
2021/04/02 09:27:20;;;;;;;13.85;11.23;;;18.70;91.50;;;;;;5138794;27;20413;-80
2021/04/02 09:29:55;;;;;;;17.70;11.20;;;18.80;91.30;;;;;;5140126;27;20537;-79
2021/04/02 09:32:22;;;;;;;16.92;11.70;;;19.00;90.60;;;;;;5139317;27;20113;-71
2021/04/02 09:34:48;;;;;;;15.40;10.48;;;19.10;88.90;;;;;;5140976;27;20102;-71
2021/04/02 09:37:13;;;;;;;15.50;10.57;;;19.10;86.70;;;;;;5140098;27;20047;-70
2021/04/02 09:39:41;;;;;;;13.43;8.77;;;19.30;86.40;;;;;;5140005;27;20019;-70
2021/04/02 09:42:14;;;;;;;22.95;12.18;;;19.40;85.20;;;;;;5140324;27;20369;-80
2021/04/02 09:44:45;;;;;;;15.32;10.07;;;19.60;86.00;;;;;;5139690;27;20034;-80
2021/04/02 09:47:14;;;;;;;15.73;9.82;;;19.70;83.10;;;;;;5139059;27;20030;-76
2021/04/02 09:49:42;;;;;;;12.30;8.63;;;19.60;84.10;;;;;;5141061;27;20451;-73
2021/04/02 09:52:09;;;;;;;15.23;10.05;;;19.50;83.00;;;;;;5140395;27;20031;-73
2021/04/02 09:54:36;;;;;;;14.57;8.85;;;19.70;82.30;;;;;;5140327;27;20499;-74
2021/04/02 09:57:09;;;;;;;17.35;11.75;;;19.60;80.90;;;;;;5140359;27;20611;-74
2021/04/02 09:59:36;;;;;;;14.93;10.88;;;19.60;82.60;;;;;;5140702;27;20019;-70
2021/04/02 10:02:03;;;;;;;20.63;10.63;;;19.60;85.10;;;;;;5140650;27;20023;-78
2021/04/02 10:04:29;;;;;;;15.40;8.80;;;19.50;80.80;;;;;;5140520;27;20025;-74
2021/04/02 10:06:55;;;;;;;13.43;8.60;;;19.40;79.40;;;;;;5140060;27;20015;-80
2021/04/02 10:09:21;;;;;;;13.40;9.05;;;19.50;81.40;;;;;;5139550;27;20011;-70
2021/04/02 10:11:49;;;;;;;13.75;8.85;;;19.50;82.30;;;;;;5139601;27;20023;-72
2021/04/02 10:14:17;;;;;;;20.27;9.55;;;19.50;80.90;;;;;;5136915;27;20023;-70
2021/04/02 10:16:46;;;;;;;15.98;9.65;;;19.50;80.20;;;;;;5139606;27;20023;-71
2021/04/02 10:19:14;;;;;;;17.08;9.55;;;19.50;80.80;;;;;;5139110;27;20060;-71
2021/04/02 10:21:40;;;;;;;21.48;11.95;;;19.60;82.10;;;;;;5139726;27;20493;-70
2021/04/02 10:24:07;;;;;;;23.20;14.45;;;19.70;81.40;;;;;;5138356;27;20019;-71
2021/04/02 10:26:33;;;;;;;15.52;9.25;;;19.80;82.50;;;;;;5139349;27;20114;-68
2021/04/02 10:28:59;;;;;;;20.38;11.45;;;19.70;79.70;;;;;;5137922;27;20127;-75
2021/04/02 10:31:25;;;;;;;23.40;12.32;;;20.00;81.70;;;;;;5138746;27;20033;-68
2021/04/02 10:33:52;;;;;;;17.35;9.15;;;20.30;80.30;;;;;;5137988;27;20070;-68
2021/04/02 10:36:18;;;;;;;14.75;8.88;;;20.40;76.50;;;;;;5139559;27;20023;-71
2021/04/02 10:38:44;;;;;;;15.48;9.63;;;20.70;75.40;;;;;;5139166;27;20414;-68
2021/04/02 10:41:10;;;;;;;19.45;11.70;;;20.60;74.60;;;;;;5140001;27;20345;-75
2021/04/02 10:43:36;;;;;;;22.23;12.38;;;20.50;73.00;;;;;;5139467;27;20079;-70
2021/04/02 10:46:02;;;;;;;23.88;12.25;;;20.50;71.50;;;;;;5140223;27;20024;-70
2021/04/02 10:48:28;;;;;;;18.17;10.23;;;20.60;73.50;;;;;;5138021;27;20023;-72
2021/04/02 10:50:54;;;;;;;19.33;12.75;;;20.60;71.00;;;;;;5139761;27;20031;-72
2021/04/02 10:53:23;;;;;;;15.93;10.05;;;20.60;72.10;;;;;;5138282;27;20023;-74
2021/04/02 10:55:49;;;;;;;17.45;10.80;;;20.70;73.30;;;;;;5138892;27;20027;-72
2021/04/02 10:58:16;;;;;;;15.90;10.02;;;21.00;73.70;;;;;;5138082;27;20027;-75
2021/04/02 11:00:41;;;;;;;23.60;12.07;;;21.10;73.40;;;;;;5138169;27;20364;-74
2021/04/02 11:03:08;;;;;;;16.90;9.40;;;21.20;71.10;;;;;;5138800;27;20418;-70
2021/04/02 11:05:35;;;;;;;18.13;9.90;;;21.20;69.70;;;;;;5138185;27;20033;-69
2021/04/02 11:08:01;;;;;;;20.30;10.02;;;21.10;67.60;;;;;;5138434;27;20026;-70
2021/04/02 11:10:27;;;;;;;30.55;13.80;;;21.00;66.70;;;;;;5140229;27;20039;-73
2021/04/02 11:12:53;;;;;;;19.60;10.52;;;20.90;66.30;;;;;;5137883;27;20579;-74
2021/04/02 11:15:20;;;;;;;17.35;9.20;;;20.80;67.60;;;;;;5138150;27;20019;-70
2021/04/02 11:17:47;;;;;;;19.00;9.05;;;20.80;67.30;;;;;;5139647;27;20046;-71
2021/04/02 11:20:16;;;;;;;13.82;8.02;;;21.00;68.60;;;;;;5139013;27;20499;-74
2021/04/02 11:22:42;;;;;;;15.35;7.82;;;21.10;65.50;;;;;;5139197;27;20027;-74
2021/04/02 11:25:10;;;;;;;27.75;16.92;;;21.00;62.80;;;;;;5139733;27;20011;-73
2021/04/02 11:27:36;;;;;;;22.92;14.55;;;21.00;62.70;;;;;;5140969;27;20019;-67
2021/04/02 11:30:04;;;;;;;20.83;11.27;;;20.90;65.50;;;;;;5142948;27;20084;-74
2021/04/02 11:32:31;;;;;;;16.63;9.70;;;20.90;66.90;;;;;;5142471;27;20023;-68
2021/04/02 11:34:56;;;;;;;56.55;32.92;;;21.00;64.50;;;;;;5143179;27;20067;-68
2021/04/02 11:37:22;;;;;;;62.72;33.55;;;21.00;65.70;;;;;;5142625;27;20103;-74
2021/04/02 11:39:49;;;;;;;18.85;9.18;;;20.80;64.50;;;;;;5143139;27;20023;-73
2021/04/02 11:42:15;;;;;;;19.98;9.95;;;20.70;64.80;;;;;;5140502;27;20027;-73
2021/04/02 11:44:41;;;;;;;19.05;8.88;;;20.70;64.20;;;;;;5141032;27;20026;-68
2021/04/02 11:47:08;;;;;;;18.05;10.68;;;20.90;64.40;;;;;;5142127;27;20023;-68
2021/04/02 11:49:35;;;;;;;22.52;11.70;;;21.20;64.90;;;;;;5141726;27;20055;-73
2021/04/02 11:52:01;;;;;;;22.90;12.93;;;21.70;67.90;;;;;;5141292;27;20037;-71
2021/04/02 11:54:27;;;;;;;19.95;10.15;;;22.10;66.00;;;;;;5141917;27;20023;-75
2021/04/02 11:56:53;;;;;;;14.05;9.13;;;22.60;61.10;;;;;;5141064;27;20087;-74
2021/04/02 11:59:19;;;;;;;19.40;10.02;;;22.80;59.60;;;;;;5141288;27;20492;-74
2021/04/02 12:01:45;;;;;;;14.82;8.70;;;23.10;59.20;;;;;;5143125;27;20019;-76
2021/04/02 12:04:11;;;;;;;17.42;7.78;;;23.10;56.30;;;;;;5141635;27;20133;-70
2021/04/02 12:06:38;;;;;;;22.60;10.93;;;22.90;54.20;;;;;;5141705;27;20043;-68
2021/04/02 12:09:05;;;;;;;13.73;8.27;;;23.10;57.70;;;;;;5141366;27;20023;-75
2021/04/02 12:11:32;;;;;;;14.75;7.80;;;23.30;54.90;;;;;;5141563;27;20015;-73
2021/04/02 12:13:58;;;;;;;13.95;7.70;;;23.10;54.60;;;;;;5140484;27;20026;-69
2021/04/02 12:16:24;;;;;;;20.40;10.35;;;23.30;56.40;;;;;;5141399;27;20755;-70
2021/04/02 12:18:50;;;;;;;15.13;8.15;;;23.40;55.30;;;;;;5139817;27;20039;-68
2021/04/02 12:21:17;;;;;;;20.70;9.18;;;23.60;56.90;;;;;;5141626;27;20024;-75
2021/04/02 12:23:43;;;;;;;15.55;7.65;;;23.70;55.40;;;;;;5140475;27;20075;-75
2021/04/02 12:26:09;;;;;;;16.92;9.07;;;23.50;54.20;;;;;;5140703;27;20469;-76
2021/04/02 12:28:35;;;;;;;24.80;12.20;;;23.60;53.90;;;;;;5141630;27;20042;-69
2021/04/02 12:31:02;;;;;;;24.10;11.30;;;23.40;54.70;;;;;;5140873;27;20031;-70
2021/04/02 12:33:29;;;;;;;13.25;7.03;;;23.60;55.10;;;;;;5140922;27;20406;-74
2021/04/02 12:35:56;;;;;;;16.02;8.38;;;23.70;54.80;;;;;;5140774;27;20054;-71